sensor_id;sensor_type;location;lat;lon;timestamp;pressure;altitude;pressure_sealevel;temperature;humidity
64876;BME280;51369;49.862;9.908;2024-01-30T00:00:58;99744.84;;;0.82;79.83
64876;BME280;51369;49.862;9.908;2024-01-30T00:03:24;99746.59;;;0.80;79.68
64876;BME280;51369;49.862;9.908;2024-01-30T00:05:49;99744.75;;;0.78;80.31
64876;BME280;51369;49.862;9.908;2024-01-30T00:08:14;99749.16;;;0.76;79.83
64876;BME280;51369;49.862;9.908;2024-01-30T00:10:40;99746.44;;;0.73;80.07
64876;BME280;51369;49.862;9.908;2024-01-30T00:13:05;99740.22;;;0.72;80.43
64876;BME280;51369;49.862;9.908;2024-01-30T00:15:30;99742.03;;;0.73;80.43
64876;BME280;51369;49.862;9.908;2024-01-30T00:17:56;99738.47;;;0.73;80.13
64876;BME280;51369;49.862;9.908;2024-01-30T00:20:22;99741.13;;;0.73;80.74
64876;BME280;51369;49.862;9.908;2024-01-30T00:22:47;99738.47;;;0.73;79.91
64876;BME280;51369;49.862;9.908;2024-01-30T00:25:13;99741.97;;;0.70;80.24
64876;BME280;51369;49.862;9.908;2024-01-30T00:27:38;99739.28;;;0.69;79.78
64876;BME280;51369;49.862;9.908;2024-01-30T00:30:04;99730.38;;;0.67;80.24
64876;BME280;51369;49.862;9.908;2024-01-30T00:32:31;99736.56;;;0.65;80.57
64876;BME280;51369;49.862;9.908;2024-01-30T00:34:56;99735.66;;;0.63;79.78
64876;BME280;51369;49.862;9.908;2024-01-30T00:37:21;99733.84;;;0.62;79.68
64876;BME280;51369;49.862;9.908;2024-01-30T00:39:47;99733.84;;;0.62;80.43
64876;BME280;51369;49.862;9.908;2024-01-30T00:42:12;99732.06;;;0.61;80.42
64876;BME280;51369;49.862;9.908;2024-01-30T00:44:37;99726.78;;;0.63;80.58
64876;BME280;51369;49.862;9.908;2024-01-30T00:47:04;99733.88;;;0.64;80.63
64876;BME280;51369;49.862;9.908;2024-01-30T00:49:29;99737.47;;;0.66;81.25
64876;BME280;51369;49.862;9.908;2024-01-30T00:51:55;99740.13;;;0.66;80.26
64876;BME280;51369;49.862;9.908;2024-01-30T00:54:20;99734.84;;;0.68;80.98
64876;BME280;51369;49.862;9.908;2024-01-30T00:56:45;99730.44;;;0.70;80.25
64876;BME280;51369;49.862;9.908;2024-01-30T00:59:11;99729.56;;;0.71;81.10
64876;BME280;51369;49.862;9.908;2024-01-30T01:01:37;99735.81;;;0.73;80.88
64876;BME280;51369;49.862;9.908;2024-01-30T01:04:02;99735.88;;;0.76;81.39
64876;BME280;51369;49.862;9.908;2024-01-30T01:06:27;99728.78;;;0.76;80.81
64876;BME280;51369;49.862;9.908;2024-01-30T01:08:53;99738.53;;;0.76;80.74
64876;BME280;51369;49.862;9.908;2024-01-30T01:11:18;99742.06;;;0.75;80.61
64876;BME280;51369;49.862;9.908;2024-01-30T01:13:44;99734.06;;;0.75;80.54
64876;BME280;51369;49.862;9.908;2024-01-30T01:16:09;99746.47;;;0.74;81.14
64876;BME280;51369;49.862;9.908;2024-01-30T01:18:34;99741.13;;;0.73;80.63
64876;BME280;51369;49.862;9.908;2024-01-30T01:21:00;99738.50;;;0.74;80.35
64876;BME280;51369;49.862;9.908;2024-01-30T01:23:26;99741.16;;;0.74;80.49
64876;BME280;51369;49.862;9.908;2024-01-30T01:25:51;99731.41;;;0.75;80.94
64876;BME280;51369;49.862;9.908;2024-01-30T01:28:17;99738.50;;;0.74;80.79
64876;BME280;51369;49.862;9.908;2024-01-30T01:30:43;99749.13;;;0.74;80.77
64876;BME280;51369;49.862;9.908;2024-01-30T01:33:09;99742.91;;;0.74;81.36
64876;BME280;51369;49.862;9.908;2024-01-30T01:35:34;99748.19;;;0.71;80.72
64876;BME280;51369;49.862;9.908;2024-01-30T01:38:00;99741.94;;;0.69;80.93
64876;BME280;51369;49.862;9.908;2024-01-30T01:40:26;99741.91;;;0.67;81.25
64876;BME280;51369;49.862;9.908;2024-01-30T01:42:53;99744.53;;;0.65;80.41
64876;BME280;51369;49.862;9.908;2024-01-30T01:45:19;99740.09;;;0.64;80.34
64876;BME280;51369;49.862;9.908;2024-01-30T01:47:50;99739.16;;;0.62;80.92
64876;BME280;51369;49.862;9.908;2024-01-30T01:50:17;99735.59;;;0.60;81.07
64876;BME280;51369;49.862;9.908;2024-01-30T01:52:47;99732.91;;;0.59;80.14
64876;BME280;51369;49.862;9.908;2024-01-30T01:55:14;99737.31;;;0.58;81.03
64876;BME280;51369;49.862;9.908;2024-01-30T01:57:40;99734.59;;;0.55;80.29
64876;BME280;51369;49.862;9.908;2024-01-30T02:00:07;99729.28;;;0.55;81.24
64876;BME280;51369;49.862;9.908;2024-01-30T02:02:36;99728.38;;;0.53;80.91
64876;BME280;51369;49.862;9.908;2024-01-30T02:05:02;99737.22;;;0.52;80.28
64876;BME280;51369;49.862;9.908;2024-01-30T02:07:28;99730.97;;;0.50;80.13
64876;BME280;51369;49.862;9.908;2024-01-30T02:09:53;99727.44;;;0.51;81.06
64876;BME280;51369;49.862;9.908;2024-01-30T02:12:19;99723.03;;;0.52;80.90
64876;BME280;51369;49.862;9.908;2024-01-30T02:14:48;99728.34;;;0.52;81.39
64876;BME280;51369;49.862;9.908;2024-01-30T02:17:15;99729.25;;;0.54;81.22
64876;BME280;51369;49.862;9.908;2024-01-30T02:19:42;99730.16;;;0.54;81.44
64876;BME280;51369;49.862;9.908;2024-01-30T02:22:07;99718.63;;;0.54;81.42
64876;BME280;51369;49.862;9.908;2024-01-30T02:24:33;99722.13;;;0.51;80.75
64876;BME280;51369;49.862;9.908;2024-01-30T02:26:59;99723.00;;;0.50;81.47
64876;BME280;51369;49.862;9.908;2024-01-30T02:29:24;99713.19;;;0.48;80.71
64876;BME280;51369;49.862;9.908;2024-01-30T02:31:50;99708.72;;;0.45;80.76
64876;BME280;51369;49.862;9.908;2024-01-30T02:34:15;99706.03;;;0.44;80.88
64876;BME280;51369;49.862;9.908;2024-01-30T02:36:44;99711.28;;;0.41;81.09
64876;BME280;51369;49.862;9.908;2024-01-30T02:39:10;99710.41;;;0.40;80.39
64876;BME280;51369;49.862;9.908;2024-01-30T02:41:36;99707.75;;;0.40;81.30
64876;BME280;51369;49.862;9.908;2024-01-30T02:44:02;99705.97;;;0.39;81.20
64876;BME280;51369;49.862;9.908;2024-01-30T02:46:27;99705.91;;;0.38;81.20
64876;BME280;51369;49.862;9.908;2024-01-30T02:48:53;99713.84;;;0.35;81.13
64876;BME280;51369;49.862;9.908;2024-01-30T02:51:18;99712.06;;;0.35;80.51
64876;BME280;51369;49.862;9.908;2024-01-30T02:53:43;99698.72;;;0.32;81.03
64876;BME280;51369;49.862;9.908;2024-01-30T02:56:09;99705.78;;;0.30;80.90
64876;BME280;51369;49.862;9.908;2024-01-30T02:58:39;99699.53;;;0.28;80.22
64876;BME280;51369;49.862;9.908;2024-01-30T03:01:05;99705.69;;;0.25;80.67
64876;BME280;51369;49.862;9.908;2024-01-30T03:03:30;99703.00;;;0.24;80.82
64876;BME280;51369;49.862;9.908;2024-01-30T03:05:55;99706.53;;;0.23;80.91
64876;BME280;51369;49.862;9.908;2024-01-30T03:08:21;99713.56;;;0.21;80.96
64876;BME280;51369;49.862;9.908;2024-01-30T03:10:46;99716.19;;;0.19;80.33
64876;BME280;51369;49.862;9.908;2024-01-30T03:13:11;99716.22;;;0.21;81.13
64876;BME280;51369;49.862;9.908;2024-01-30T03:15:37;99711.81;;;0.21;81.37
64876;BME280;51369;49.862;9.908;2024-01-30T03:18:02;99707.41;;;0.23;81.21
64876;BME280;51369;49.862;9.908;2024-01-30T03:20:31;99708.41;;;0.28;81.64
64876;BME280;51369;49.862;9.908;2024-01-30T03:22:57;99706.69;;;0.32;81.42
64876;BME280;51369;49.862;9.908;2024-01-30T03:25:24;99705.91;;;0.36;81.67
64876;BME280;51369;49.862;9.908;2024-01-30T03:27:50;99702.41;;;0.39;82.28
64876;BME280;51369;49.862;9.908;2024-01-30T03:30:15;99699.72;;;0.37;82.12
64876;BME280;51369;49.862;9.908;2024-01-30T03:32:41;99703.25;;;0.36;81.74
64876;BME280;51369;49.862;9.908;2024-01-30T03:35:06;99696.97;;;0.32;81.74
64876;BME280;51369;49.862;9.908;2024-01-30T03:37:32;99697.84;;;0.31;81.73
64876;BME280;51369;49.862;9.908;2024-01-30T03:39:57;99705.78;;;0.30;81.90
64876;BME280;51369;49.862;9.908;2024-01-30T03:42:23;99695.06;;;0.25;81.72
64876;BME280;51369;49.862;9.908;2024-01-30T03:44:48;99707.41;;;0.23;81.61
64876;BME280;51369;49.862;9.908;2024-01-30T03:47:17;99706.47;;;0.20;81.01
64876;BME280;51369;49.862;9.908;2024-01-30T03:49:42;99695.78;;;0.17;81.12
64876;BME280;51369;49.862;9.908;2024-01-30T03:52:07;99707.25;;;0.14;81.21
64876;BME280;51369;49.862;9.908;2024-01-30T03:54:33;99701.00;;;0.12;81.30
64876;BME280;51369;49.862;9.908;2024-01-30T03:56:58;99696.53;;;0.10;80.88
64876;BME280;51369;49.862;9.908;2024-01-30T03:59:23;99693.81;;;0.07;80.97
64876;BME280;51369;49.862;9.908;2024-01-30T04:01:50;99698.19;;;0.05;80.98
64876;BME280;51369;49.862;9.908;2024-01-30T04:04:17;99706.16;;;0.05;80.95
64876;BME280;51369;49.862;9.908;2024-01-30T04:06:43;99705.25;;;0.04;81.89
64876;BME280;51369;49.862;9.908;2024-01-30T04:09:08;99704.38;;;0.04;81.46
64876;BME280;51369;49.862;9.908;2024-01-30T04:11:34;99705.25;;;0.04;81.34
64876;BME280;51369;49.862;9.908;2024-01-30T04:13:59;99699.09;;;0.05;81.22
64876;BME280;51369;49.862;9.908;2024-01-30T04:16:24;99703.56;;;0.08;82.03
64876;BME280;51369;49.862;9.908;2024-01-30T04:18:51;99700.03;;;0.09;81.82
64876;BME280;51369;49.862;9.908;2024-01-30T04:21:16;99700.94;;;0.09;81.64
64876;BME280;51369;49.862;9.908;2024-01-30T04:23:42;99704.50;;;0.10;81.24
64876;BME280;51369;49.862;9.908;2024-01-30T04:26:08;99699.19;;;0.10;82.07
64876;BME280;51369;49.862;9.908;2024-01-30T04:28:33;99701.84;;;0.10;82.06
64876;BME280;51369;49.862;9.908;2024-01-30T04:30:58;99711.59;;;0.11;82.13
64876;BME280;51369;49.862;9.908;2024-01-30T04:33:24;99707.19;;;0.11;81.86
64876;BME280;51369;49.862;9.908;2024-01-30T04:35:49;99711.59;;;0.11;81.73
64876;BME280;51369;49.862;9.908;2024-01-30T04:38:14;99709.81;;;0.10;82.14
64876;BME280;51369;49.862;9.908;2024-01-30T04:40:40;99708.91;;;0.09;81.65
64876;BME280;51369;49.862;9.908;2024-01-30T04:43:06;99707.09;;;0.07;81.94
64876;BME280;51369;49.862;9.908;2024-01-30T04:45:31;99707.06;;;0.05;81.88
64876;BME280;51369;49.862;9.908;2024-01-30T04:47:56;99709.69;;;0.04;82.20
64876;BME280;51369;49.862;9.908;2024-01-30T04:50:22;99706.09;;;0.02;82.08
64876;BME280;51369;49.862;9.908;2024-01-30T04:52:48;99704.31;;;0.00;81.89
64876;BME280;51369;49.862;9.908;2024-01-30T04:55:14;99708.72;;;-0.02;81.44
64876;BME280;51369;49.862;9.908;2024-01-30T04:57:39;99703.38;;;-0.03;81.99
64876;BME280;51369;49.862;9.908;2024-01-30T05:00:05;99706.00;;;-0.05;81.88
64876;BME280;51369;49.862;9.908;2024-01-30T05:02:31;99698.91;;;-0.06;81.59
64876;BME280;51369;49.862;9.908;2024-01-30T05:04:56;99691.81;;;-0.07;82.09
64876;BME280;51369;49.862;9.908;2024-01-30T05:07:22;99705.03;;;-0.08;82.26
64876;BME280;51369;49.862;9.908;2024-01-30T05:09:48;99709.44;;;-0.09;81.60
64876;BME280;51369;49.862;9.908;2024-01-30T05:12:13;99710.28;;;-0.11;81.85
64876;BME280;51369;49.862;9.908;2024-01-30T05:14:39;99708.50;;;-0.12;81.96
64876;BME280;51369;49.862;9.908;2024-01-30T05:17:04;99704.09;;;-0.12;82.18
64876;BME280;51369;49.862;9.908;2024-01-30T05:19:29;99706.75;;;-0.12;81.90
64876;BME280;51369;49.862;9.908;2024-01-30T05:21:55;99697.91;;;-0.11;81.85
64876;BME280;51369;49.862;9.908;2024-01-30T05:24:20;99706.84;;;-0.07;82.86
64876;BME280;51369;49.862;9.908;2024-01-30T05:26:46;99710.44;;;-0.04;82.60
64876;BME280;51369;49.862;9.908;2024-01-30T05:29:12;99716.69;;;-0.02;82.81
64876;BME280;51369;49.862;9.908;2024-01-30T05:31:37;99718.50;;;0.03;82.56
64876;BME280;51369;49.862;9.908;2024-01-30T05:34:03;99716.78;;;0.05;82.92
64876;BME280;51369;49.862;9.908;2024-01-30T05:36:28;99714.19;;;0.08;83.33
64876;BME280;51369;49.862;9.908;2024-01-30T05:38:53;99716.84;;;0.08;82.77
64876;BME280;51369;49.862;9.908;2024-01-30T05:41:19;99722.13;;;0.06;82.75
64876;BME280;51369;49.862;9.908;2024-01-30T05:43:46;99723.00;;;0.07;82.13
64876;BME280;51369;49.862;9.908;2024-01-30T05:46:11;99723.84;;;0.04;82.60
64876;BME280;51369;49.862;9.908;2024-01-30T05:48:36;99721.19;;;0.04;83.21
64876;BME280;51369;49.862;9.908;2024-01-30T05:51:02;99721.19;;;0.04;83.11
64876;BME280;51369;49.862;9.908;2024-01-30T05:53:29;99730.94;;;0.05;82.48
64876;BME280;51369;49.862;9.908;2024-01-30T05:55:54;99720.31;;;0.05;82.53
64876;BME280;51369;49.862;9.908;2024-01-30T05:58:19;99722.97;;;0.05;83.12
64876;BME280;51369;49.862;9.908;2024-01-30T06:00:44;99723.00;;;0.07;83.16
64876;BME280;51369;49.862;9.908;2024-01-30T06:03:10;99728.34;;;0.08;83.07
64876;BME280;51369;49.862;9.908;2024-01-30T06:05:35;99720.34;;;0.07;82.49
64876;BME280;51369;49.862;9.908;2024-01-30T06:08:02;99729.19;;;0.06;82.64
64876;BME280;51369;49.862;9.908;2024-01-30T06:10:27;99721.16;;;0.03;82.67
64876;BME280;51369;49.862;9.908;2024-01-30T06:12:53;99728.19;;;0.00;82.01
64876;BME280;51369;49.862;9.908;2024-01-30T06:15:18;99723.75;;;-0.02;81.74
64876;BME280;51369;49.862;9.908;2024-01-30T06:17:43;99726.38;;;-0.04;82.59
64876;BME280;51369;49.862;9.908;2024-01-30T06:20:09;99725.44;;;-0.06;81.87
64876;BME280;51369;49.862;9.908;2024-01-30T06:22:34;99723.66;;;-0.07;82.20
64876;BME280;51369;49.862;9.908;2024-01-30T06:24:59;99718.34;;;-0.07;82.63
64876;BME280;51369;49.862;9.908;2024-01-30T06:27:25;99718.34;;;-0.07;82.27
64876;BME280;51369;49.862;9.908;2024-01-30T06:29:50;99721.00;;;-0.07;82.29
64876;BME280;51369;49.862;9.908;2024-01-30T06:32:15;99718.34;;;-0.07;82.08
64876;BME280;51369;49.862;9.908;2024-01-30T06:34:42;99720.13;;;-0.06;82.70
64876;BME280;51369;49.862;9.908;2024-01-30T06:37:10;99728.06;;;-0.07;82.43
64876;BME280;51369;49.862;9.908;2024-01-30T06:39:35;99724.50;;;-0.09;82.27
64876;BME280;51369;49.862;9.908;2024-01-30T06:42:00;99724.41;;;-0.12;81.90
64876;BME280;51369;49.862;9.908;2024-01-30T06:44:26;99741.19;;;-0.15;81.77
64876;BME280;51369;49.862;9.908;2024-01-30T06:46:51;99740.28;;;-0.15;81.82
64876;BME280;51369;49.862;9.908;2024-01-30T06:49:16;99729.59;;;-0.18;81.71
64876;BME280;51369;49.862;9.908;2024-01-30T06:51:42;99734.91;;;-0.18;82.28
64876;BME280;51369;49.862;9.908;2024-01-30T06:54:07;99733.97;;;-0.20;81.89
64876;BME280;51369;49.862;9.908;2024-01-30T06:56:33;99734.84;;;-0.21;81.74
64876;BME280;51369;49.862;9.908;2024-01-30T06:58:59;99733.91;;;-0.23;81.75
64876;BME280;51369;49.862;9.908;2024-01-30T07:01:28;99739.19;;;-0.25;81.54
64876;BME280;51369;49.862;9.908;2024-01-30T07:03:55;99742.69;;;-0.26;81.51
64876;BME280;51369;49.862;9.908;2024-01-30T07:06:20;99745.31;;;-0.27;81.44
64876;BME280;51369;49.862;9.908;2024-01-30T07:08:46;99745.31;;;-0.27;81.94
64876;BME280;51369;49.862;9.908;2024-01-30T07:11:18;99749.69;;;-0.29;81.88
64876;BME280;51369;49.862;9.908;2024-01-30T07:13:43;99744.44;;;-0.28;81.81
64876;BME280;51369;49.862;9.908;2024-01-30T07:16:09;99743.63;;;-0.24;82.24
64876;BME280;51369;49.862;9.908;2024-01-30T07:18:34;99744.63;;;-0.19;82.68
64876;BME280;51369;49.862;9.908;2024-01-30T07:21:00;99745.63;;;-0.14;82.62
64876;BME280;51369;49.862;9.908;2024-01-30T07:23:25;99748.41;;;-0.08;83.21
64876;BME280;51369;49.862;9.908;2024-01-30T07:25:50;99744.97;;;-0.04;82.97
64876;BME280;51369;49.862;9.908;2024-01-30T07:28:16;99736.16;;;0.00;82.70
64876;BME280;51369;49.862;9.908;2024-01-30T07:30:44;99738.00;;;0.05;83.19
64876;BME280;51369;49.862;9.908;2024-01-30T07:33:10;99740.75;;;0.08;82.41
64876;BME280;51369;49.862;9.908;2024-01-30T07:35:36;99743.47;;;0.11;82.90
64876;BME280;51369;49.862;9.908;2024-01-30T07:38:01;99748.84;;;0.14;83.02
64876;BME280;51369;49.862;9.908;2024-01-30T07:40:27;99758.63;;;0.16;82.52
64876;BME280;51369;49.862;9.908;2024-01-30T07:42:53;99753.38;;;0.19;83.22
64876;BME280;51369;49.862;9.908;2024-01-30T07:45:18;99757.88;;;0.23;83.10
64876;BME280;51369;49.862;9.908;2024-01-30T07:47:49;99750.84;;;0.25;82.69
64876;BME280;51369;49.862;9.908;2024-01-30T07:50:14;99751.78;;;0.27;82.83
64876;BME280;51369;49.862;9.908;2024-01-30T07:52:39;99752.72;;;0.31;82.66
64876;BME280;51369;49.862;9.908;2024-01-30T07:55:05;99762.53;;;0.33;82.74
64876;BME280;51369;49.862;9.908;2024-01-30T07:57:33;99765.28;;;0.40;83.19
64876;BME280;51369;49.862;9.908;2024-01-30T07:59:59;99753.88;;;0.44;82.70
64876;BME280;51369;49.862;9.908;2024-01-30T08:02:25;99765.50;;;0.50;83.06
64876;BME280;51369;49.862;9.908;2024-01-30T08:04:50;99763.84;;;0.55;83.56
64876;BME280;51369;49.862;9.908;2024-01-30T08:07:16;99758.59;;;0.58;83.46
64876;BME280;51369;49.862;9.908;2024-01-30T08:09:43;99759.56;;;0.63;83.24
64876;BME280;51369;49.862;9.908;2024-01-30T08:12:08;99749.88;;;0.67;82.57
64876;BME280;51369;49.862;9.908;2024-01-30T08:14:33;99751.75;;;0.71;82.93
64876;BME280;51369;49.862;9.908;2024-01-30T08:16:59;99760.69;;;0.76;83.02
64876;BME280;51369;49.862;9.908;2024-01-30T08:19:24;99748.31;;;0.78;83.21
64876;BME280;51369;49.862;9.908;2024-01-30T08:21:49;99750.16;;;0.82;82.12
64876;BME280;51369;49.862;9.908;2024-01-30T08:24:15;99755.53;;;0.85;82.96
64876;BME280;51369;49.862;9.908;2024-01-30T08:26:40;99759.19;;;0.90;82.22
64876;BME280;51369;49.862;9.908;2024-01-30T08:29:06;99752.16;;;0.94;82.29
64876;BME280;51369;49.862;9.908;2024-01-30T08:31:32;99760.22;;;0.98;82.48
64876;BME280;51369;49.862;9.908;2024-01-30T08:33:57;99751.41;;;1.03;82.02
64876;BME280;51369;49.862;9.908;2024-01-30T08:36:25;99755.94;;;1.08;82.17
64876;BME280;51369;49.862;9.908;2024-01-30T08:38:50;99760.47;;;1.14;81.51
64876;BME280;51369;49.862;9.908;2024-01-30T08:41:16;99756.19;;;1.22;81.80
64876;BME280;51369;49.862;9.908;2024-01-30T08:43:41;99755.44;;;1.30;82.13
64876;BME280;51369;49.862;9.908;2024-01-30T08:46:06;99765.31;;;1.38;82.13
64876;BME280;51369;49.862;9.908;2024-01-30T08:48:32;99753.91;;;1.46;82.32
64876;BME280;51369;49.862;9.908;2024-01-30T08:50:57;99751.38;;;1.54;82.28
64876;BME280;51369;49.862;9.908;2024-01-30T08:53:22;99759.50;;;1.63;82.41
64876;BME280;51369;49.862;9.908;2024-01-30T08:55:48;99756.94;;;1.71;82.50
64876;BME280;51369;49.862;9.908;2024-01-30T08:58:13;99754.38;;;1.80;81.75
64876;BME280;51369;49.862;9.908;2024-01-30T09:00:38;99760.75;;;1.91;82.04
64876;BME280;51369;49.862;9.908;2024-01-30T09:03:04;99756.44;;;1.99;81.34
64876;BME280;51369;49.862;9.908;2024-01-30T09:05:30;99755.69;;;2.09;82.24
64876;BME280;51369;49.862;9.908;2024-01-30T09:07:55;99758.44;;;2.17;81.50
64876;BME280;51369;49.862;9.908;2024-01-30T09:10:21;99754.09;;;2.25;81.84
64876;BME280;51369;49.862;9.908;2024-01-30T09:12:47;99753.31;;;2.34;82.06
64876;BME280;51369;49.862;9.908;2024-01-30T09:15:12;99760.53;;;2.42;81.77
64876;BME280;51369;49.862;9.908;2024-01-30T09:17:38;99766.00;;;2.53;81.32
64876;BME280;51369;49.862;9.908;2024-01-30T09:20:04;99765.19;;;2.61;81.72
64876;BME280;51369;49.862;9.908;2024-01-30T09:22:29;99764.41;;;2.70;81.54
64876;BME280;51369;49.862;9.908;2024-01-30T09:24:54;99764.50;;;2.78;81.83
64876;BME280;51369;49.862;9.908;2024-01-30T09:27:20;99775.25;;;2.85;81.05
64876;BME280;51369;49.862;9.908;2024-01-30T09:29:45;99769.09;;;2.94;81.36
64876;BME280;51369;49.862;9.908;2024-01-30T09:32:10;99773.63;;;3.03;81.15
64876;BME280;51369;49.862;9.908;2024-01-30T09:34:36;99779.03;;;3.10;81.74
64876;BME280;51369;49.862;9.908;2024-01-30T09:37:01;99772.91;;;3.19;80.65
64876;BME280;51369;49.862;9.908;2024-01-30T09:39:27;99772.09;;;3.28;80.83
64876;BME280;51369;49.862;9.908;2024-01-30T09:42:03;99774.84;;;3.37;80.77
64876;BME280;51369;49.862;9.908;2024-01-30T09:44:30;99771.34;;;3.48;81.53
64876;BME280;51369;49.862;9.908;2024-01-30T09:46:56;99781.19;;;3.57;80.87
64876;BME280;51369;49.862;9.908;2024-01-30T09:49:24;99785.72;;;3.67;81.06
64876;BME280;51369;49.862;9.908;2024-01-30T09:51:50;99787.59;;;3.77;80.27
64876;BME280;51369;49.862;9.908;2024-01-30T09:54:15;99786.75;;;3.87;80.49
64876;BME280;51369;49.862;9.908;2024-01-30T09:56:41;99790.38;;;3.97;80.67
64876;BME280;51369;49.862;9.908;2024-01-30T09:59:07;99782.44;;;4.08;79.88
64876;BME280;51369;49.862;9.908;2024-01-30T10:01:34;99787.84;;;4.18;79.42
64876;BME280;51369;49.862;9.908;2024-01-30T10:04:00;99791.44;;;4.28;78.77
64876;BME280;51369;49.862;9.908;2024-01-30T10:06:26;99786.16;;;4.37;78.75
64876;BME280;51369;49.862;9.908;2024-01-30T10:08:52;99794.22;;;4.48;78.42
64876;BME280;51369;49.862;9.908;2024-01-30T10:11:17;99789.81;;;4.57;78.03
64876;BME280;51369;49.862;9.908;2024-01-30T10:13:42;99780.94;;;4.68;78.30
64876;BME280;51369;49.862;9.908;2024-01-30T10:16:08;99779.19;;;4.77;78.36
64876;BME280;51369;49.862;9.908;2024-01-30T10:18:34;99790.81;;;4.88;77.76
64876;BME280;51369;49.862;9.908;2024-01-30T10:21:00;99793.50;;;4.99;77.58
64876;BME280;51369;49.862;9.908;2024-01-30T10:23:25;99790.84;;;5.08;77.34
64876;BME280;51369;49.862;9.908;2024-01-30T10:25:51;99789.06;;;5.16;77.50
64876;BME280;51369;49.862;9.908;2024-01-30T10:28:17;99778.34;;;5.22;76.73
64876;BME280;51369;49.862;9.908;2024-01-30T10:30:42;99776.56;;;5.28;76.13
64876;BME280;51369;49.862;9.908;2024-01-30T10:33:08;99777.47;;;5.33;76.04
64876;BME280;51369;49.862;9.908;2024-01-30T10:35:33;99765.84;;;5.38;75.75
64876;BME280;51369;49.862;9.908;2024-01-30T10:37:59;99767.63;;;5.44;76.09
64876;BME280;51369;49.862;9.908;2024-01-30T10:40:27;99765.84;;;5.49;75.37
64876;BME280;51369;49.862;9.908;2024-01-30T10:42:55;99769.41;;;5.55;75.45
64876;BME280;51369;49.862;9.908;2024-01-30T10:45:21;99764.06;;;5.60;74.85
64876;BME280;51369;49.862;9.908;2024-01-30T10:47:54;99760.50;;;5.64;74.14
64876;BME280;51369;49.862;9.908;2024-01-30T10:50:24;99757.81;;;5.70;74.69
64876;BME280;51369;49.862;9.908;2024-01-30T10:52:50;99751.53;;;5.77;74.58
64876;BME280;51369;49.862;9.908;2024-01-30T10:55:16;99748.84;;;5.83;74.42
64876;BME280;51369;49.862;9.908;2024-01-30T10:57:43;99747.97;;;5.91;73.94
64876;BME280;51369;49.862;9.908;2024-01-30T11:00:10;99747.97;;;5.97;74.26
64876;BME280;51369;49.862;9.908;2024-01-30T11:02:40;99746.16;;;6.02;73.80
64876;BME280;51369;49.862;9.908;2024-01-30T11:05:06;99747.94;;;6.09;73.50
64876;BME280;51369;49.862;9.908;2024-01-30T11:07:31;99737.19;;;6.16;73.55
64876;BME280;51369;49.862;9.908;2024-01-30T11:12:23;99728.22;;;6.22;72.91
64876;BME280;51369;49.862;9.908;2024-01-30T11:14:50;99730.00;;;6.28;72.49
64876;BME280;51369;49.862;9.908;2024-01-30T11:17:15;99727.28;;;6.31;72.41
64876;BME280;51369;49.862;9.908;2024-01-30T11:19:41;99730.88;;;6.34;72.72
64876;BME280;51369;49.862;9.908;2024-01-30T11:22:07;99718.31;;;6.39;72.44
64876;BME280;51369;49.862;9.908;2024-01-30T11:24:41;99726.34;;;6.44;71.97
64876;BME280;51369;49.862;9.908;2024-01-30T11:27:10;99723.66;;;6.48;72.10
64876;BME280;51369;49.862;9.908;2024-01-30T11:29:35;99727.19;;;6.53;72.22
64876;BME280;51369;49.862;9.908;2024-01-30T11:32:01;99720.03;;;6.57;72.12
64876;BME280;51369;49.862;9.908;2024-01-30T11:34:27;99721.78;;;6.61;72.09
64876;BME280;51369;49.862;9.908;2024-01-30T11:36:58;99716.41;;;6.66;72.09
64876;BME280;51369;49.862;9.908;2024-01-30T11:39:27;99714.56;;;6.71;72.14
64876;BME280;51369;49.862;9.908;2024-01-30T11:41:53;99713.66;;;6.73;71.77
64876;BME280;51369;49.862;9.908;2024-01-30T11:44:22;99712.75;;;6.76;71.65
64876;BME280;51369;49.862;9.908;2024-01-30T11:46:48;99705.56;;;6.81;71.63
64876;BME280;51369;49.862;9.908;2024-01-30T11:49:14;99714.50;;;6.84;71.46
64876;BME280;51369;49.862;9.908;2024-01-30T11:51:40;99705.50;;;6.92;71.68
64876;BME280;51369;49.862;9.908;2024-01-30T11:54:07;99707.22;;;6.97;71.82
64876;BME280;51369;49.862;9.908;2024-01-30T11:56:32;99702.72;;;7.02;71.04
64876;BME280;51369;49.862;9.908;2024-01-30T11:58:58;99699.97;;;7.07;70.93
64876;BME280;51369;49.862;9.908;2024-01-30T12:01:25;99706.19;;;7.15;71.81
64876;BME280;51369;49.862;9.908;2024-01-30T12:03:51;99702.53;;;7.24;71.78
64876;BME280;51369;49.862;9.908;2024-01-30T12:06:17;99704.28;;;7.31;71.17
64876;BME280;51369;49.862;9.908;2024-01-30T12:08:42;99704.22;;;7.35;71.22
64876;BME280;51369;49.862;9.908;2024-01-30T12:11:08;99704.19;;;7.40;70.92
64876;BME280;51369;49.862;9.908;2024-01-30T12:13:34;99714.88;;;7.46;70.92
64876;BME280;51369;49.862;9.908;2024-01-30T12:16:02;99709.47;;;7.52;71.56
64876;BME280;51369;49.862;9.908;2024-01-30T12:18:28;99698.66;;;7.58;70.16
64876;BME280;51369;49.862;9.908;2024-01-30T12:20:59;99690.56;;;7.61;70.33
64876;BME280;51369;49.862;9.908;2024-01-30T12:23:26;99686.03;;;7.66;70.33
64876;BME280;51369;49.862;9.908;2024-01-30T12:25:52;99687.75;;;7.73;70.75
64876;BME280;51369;49.862;9.908;2024-01-30T12:28:18;99680.50;;;7.80;70.56
64876;BME280;51369;49.862;9.908;2024-01-30T12:30:43;99680.44;;;7.88;70.20
64876;BME280;51369;49.862;9.908;2024-01-30T12:33:09;99679.47;;;7.92;70.20
64876;BME280;51369;49.862;9.908;2024-01-30T12:35:35;99672.28;;;7.95;69.38
64876;BME280;51369;49.862;9.908;2024-01-30T12:38:02;99673.16;;;7.97;69.48
64876;BME280;51369;49.862;9.908;2024-01-30T12:40:27;99678.47;;;8.02;69.20
64876;BME280;51369;49.862;9.908;2024-01-30T12:42:53;99676.63;;;8.05;69.74
64876;BME280;51369;49.862;9.908;2024-01-30T12:45:18;99663.13;;;8.10;69.30
64876;BME280;51369;49.862;9.908;2024-01-30T12:47:47;99671.16;;;8.13;68.93
64876;BME280;51369;49.862;9.908;2024-01-30T12:50:13;99662.19;;;8.14;69.15
64876;BME280;51369;49.862;9.908;2024-01-30T12:52:42;99660.38;;;8.16;69.42
64876;BME280;51369;49.862;9.908;2024-01-30T12:55:07;99657.66;;;8.18;68.64
64876;BME280;51369;49.862;9.908;2024-01-30T12:57:33;99658.53;;;8.20;68.45
64876;BME280;51369;49.862;9.908;2024-01-30T12:59:58;99652.22;;;8.22;69.18
64876;BME280;51369;49.862;9.908;2024-01-30T13:02:23;99662.94;;;8.25;69.09
64876;BME280;51369;49.862;9.908;2024-01-30T13:04:50;99656.59;;;8.29;68.85